Tournai, Belgium
Current Conditions -  °F | °C
As of 10:30 AM on Thursday 18 Dec 2014 (Local Time) from LFQQ Reporting Station
Overcast Overcast  
Wind Chill: 54°   Ceiling: 700
Heat Index: 54°   Visibility: 5mi
Dew Point: 52°   Wind: 16mph
Humidity: 94%   Direction: 250°WSW
Pressure: 29.91"   Gusts: NA
Location:  50.61°N, 3.39°E
Report Text: LFQQ 180930Z 25014KT 8000 OVC007 12/11 Q1013 TEMPO 3000OVC003
Loading
Personal Weather Stations






























Interactive Weather Map New forecast layout! Learn more

10-Day Weather Forecast

Advertisements
Track Severe Weather on mobile